createdAt,value
2018-04-17T00:00:10.577Z,99.90
2018-04-17T00:02:38.148Z,99.90
2018-04-17T00:05:05.711Z,99.90
2018-04-17T00:07:34.062Z,99.90
2018-04-17T00:10:01.636Z,99.90
2018-04-17T00:12:29.205Z,99.90
2018-04-17T00:14:56.771Z,99.90
2018-04-17T00:17:24.343Z,99.90
2018-04-17T00:19:52.666Z,99.90
2018-04-17T00:22:20.240Z,99.90
2018-04-17T00:24:47.797Z,99.90
2018-04-17T00:27:15.418Z,99.90
2018-04-17T00:29:43.763Z,99.90
2018-04-17T00:32:11.352Z,99.90
2018-04-17T00:34:38.923Z,99.90
2018-04-17T00:37:06.510Z,99.90
2018-04-17T00:39:34.113Z,99.90
2018-04-17T00:42:01.717Z,99.90
2018-04-17T00:44:29.291Z,99.90
2018-04-17T00:46:56.872Z,99.90
2018-04-17T00:49:24.450Z,99.90
2018-04-17T00:51:52.004Z,99.90
2018-04-17T00:54:19.576Z,99.90
2018-04-17T00:56:47.207Z,99.90
2018-04-17T00:59:15.540Z,99.90
2018-04-17T01:01:43.894Z,99.90
2018-04-17T01:04:11.478Z,99.90
2018-04-17T01:06:39.796Z,99.90
2018-04-17T01:09:08.135Z,99.90
2018-04-17T01:11:36.460Z,99.90
2018-04-17T01:14:04.044Z,99.90
2018-04-17T01:16:31.623Z,99.90
2018-04-17T01:18:59.946Z,99.90
2018-04-17T01:21:27.513Z,99.90
2018-04-17T01:23:55.104Z,99.90
2018-04-17T01:26:22.694Z,99.90
2018-04-17T01:28:51.053Z,99.90
2018-04-17T01:31:18.611Z,99.90
2018-04-17T01:33:46.200Z,99.90
2018-04-17T01:36:14.555Z,99.90
2018-04-17T01:38:42.129Z,99.90
2018-04-17T01:41:10.469Z,99.90
2018-04-17T01:43:38.029Z,99.90
2018-04-17T01:46:05.640Z,99.90
2018-04-17T01:48:33.954Z,99.90
2018-04-17T01:51:01.566Z,99.90
2018-04-17T01:53:29.114Z,99.90
2018-04-17T01:55:56.764Z,99.90
2018-04-17T01:58:24.315Z,99.90
2018-04-17T02:00:51.912Z,99.90
2018-04-17T02:03:19.467Z,99.90
2018-04-17T02:05:47.036Z,99.90
2018-04-17T02:08:15.363Z,99.90
2018-04-17T02:10:42.956Z,99.90
2018-04-17T02:13:10.624Z,99.90
2018-04-17T02:15:38.208Z,99.90
2018-04-17T02:18:06.524Z,99.90
2018-04-17T02:20:34.129Z,99.90
2018-04-17T02:23:01.776Z,99.90
2018-04-17T02:25:29.368Z,99.90
2018-04-17T02:27:57.752Z,99.90
2018-04-17T02:30:26.079Z,99.90
2018-04-17T02:32:53.689Z,99.90
2018-04-17T02:35:22.040Z,99.90
2018-04-17T02:37:49.612Z,99.90
2018-04-17T02:40:17.185Z,99.90
2018-04-17T02:42:45.541Z,99.90
2018-04-17T02:45:13.125Z,99.90
2018-04-17T02:47:41.475Z,99.90
2018-04-17T02:50:09.051Z,99.90
2018-04-17T02:52:36.761Z,99.90
2018-04-17T02:55:04.327Z,99.90
2018-04-17T02:57:31.941Z,99.90
2018-04-17T02:59:59.483Z,99.90
2018-04-17T03:02:27.051Z,99.90
2018-04-17T03:04:54.635Z,99.90
2018-04-17T03:07:22.982Z,99.90
2018-04-17T03:09:50.569Z,99.90
2018-04-17T03:12:18.910Z,99.90
2018-04-17T03:14:46.500Z,99.90
2018-04-17T03:17:14.071Z,99.90
2018-04-17T03:19:42.519Z,99.90
2018-04-17T03:22:10.083Z,99.90
2018-04-17T03:24:37.660Z,99.90
2018-04-17T03:27:05.223Z,99.90
2018-04-17T03:29:32.838Z,99.90
2018-04-17T03:32:00.419Z,99.90
2018-04-17T03:34:27.983Z,99.90
2018-04-17T03:36:55.555Z,99.90
2018-04-17T03:39:23.128Z,99.90
2018-04-17T03:41:50.692Z,99.90
2018-04-17T03:44:18.261Z,99.90
2018-04-17T03:46:46.626Z,99.90
2018-04-17T03:49:14.257Z,99.90
2018-04-17T03:51:41.848Z,99.90
2018-04-17T03:54:09.419Z,99.90
2018-04-17T03:56:37.765Z,99.90
2018-04-17T03:59:05.348Z,99.90
2018-04-17T04:01:33.002Z,99.90
2018-04-17T04:04:00.559Z,99.90
2018-04-17T04:06:28.137Z,99.90
2018-04-17T04:08:55.692Z,99.90
2018-04-17T04:11:24.053Z,99.90
2018-04-17T04:13:51.711Z,99.90
2018-04-17T04:16:31.072Z,99.90
2018-04-17T04:19:10.476Z,99.90
2018-04-17T04:21:50.954Z,99.90
2018-04-17T04:24:30.183Z,99.90
2018-04-17T04:26:57.771Z,99.90
2018-04-17T04:29:25.369Z,99.90
2018-04-17T04:31:53.668Z,99.90
2018-04-17T04:34:21.247Z,99.90
2018-04-17T04:36:48.816Z,99.90
2018-04-17T04:39:16.403Z,99.90
2018-04-17T04:41:44.012Z,99.90
2018-04-17T04:44:11.596Z,99.90
2018-04-17T04:46:39.162Z,99.90
2018-04-17T04:49:06.751Z,99.90
2018-04-17T04:51:34.307Z,99.90
2018-04-17T04:54:02.011Z,99.90
2018-04-17T04:56:29.605Z,99.90
2018-04-17T04:58:57.174Z,99.90
2018-04-17T05:01:24.728Z,99.90
2018-04-17T05:03:52.303Z,99.90
2018-04-17T05:06:19.856Z,99.90
2018-04-17T05:08:47.435Z,99.90
2018-04-17T05:11:15.760Z,99.90
2018-04-17T05:13:43.339Z,99.90
2018-04-17T05:16:10.924Z,99.90
2018-04-17T05:18:38.504Z,99.90
2018-04-17T05:21:07.019Z,99.90
2018-04-17T05:23:34.603Z,99.90
2018-04-17T05:26:02.168Z,99.90
2018-04-17T05:28:29.788Z,99.90
2018-04-17T05:30:57.357Z,99.90
2018-04-17T05:33:24.964Z,99.90
2018-04-17T05:35:52.542Z,99.90
2018-04-17T05:38:20.175Z,99.90
2018-04-17T05:40:47.730Z,99.90
2018-04-17T05:43:15.284Z,99.90
2018-04-17T05:45:42.859Z,99.90
2018-04-17T05:48:10.426Z,99.90
2018-04-17T05:50:38.019Z,99.90
2018-04-17T05:53:06.369Z,99.90
2018-04-17T05:55:34.792Z,99.90
2018-04-17T05:58:03.127Z,99.90
2018-04-17T06:00:30.739Z,99.90
2018-04-17T06:02:58.293Z,99.90
2018-04-17T06:05:26.675Z,99.90
2018-04-17T06:07:54.248Z,99.90
2018-04-17T06:10:21.856Z,99.90
2018-04-17T06:12:49.461Z,99.90
2018-04-17T06:15:17.078Z,99.90
2018-04-17T06:17:44.862Z,99.90
2018-04-17T06:20:12.453Z,99.90
2018-04-17T06:22:40.016Z,99.90
2018-04-17T06:25:07.623Z,99.90
2018-04-17T06:27:35.201Z,99.90
2018-04-17T06:30:02.777Z,99.90
2018-04-17T06:32:30.363Z,99.90
2018-04-17T06:34:57.943Z,99.90
2018-04-17T06:37:25.587Z,99.90
2018-04-17T06:39:53.947Z,99.90
2018-04-17T06:42:22.299Z,99.90
2018-04-17T06:44:49.851Z,99.90
2018-04-17T06:47:17.489Z,99.90
2018-04-17T06:49:45.019Z,99.90
2018-04-17T06:52:12.619Z,99.90
2018-04-17T06:54:40.176Z,99.90
2018-04-17T06:57:07.759Z,99.90
2018-04-17T06:59:35.412Z,99.90
2018-04-17T07:02:03.006Z,99.90
2018-04-17T07:04:30.556Z,99.90
2018-04-17T07:06:58.198Z,99.90
2018-04-17T07:09:25.745Z,99.90
2018-04-17T07:11:53.324Z,99.90
2018-04-17T07:14:20.908Z,98.70
2018-04-17T07:16:48.475Z,98.00
2018-04-17T07:19:16.816Z,95.50
2018-04-17T07:21:44.388Z,95.50
2018-04-17T07:24:11.992Z,94.70
2018-04-17T07:26:40.340Z,93.60
2018-04-17T07:29:07.927Z,93.60
2018-04-17T07:31:36.265Z,93.30
2018-04-17T07:34:03.846Z,93.30
2018-04-17T07:36:31.403Z,93.60
2018-04-17T07:38:59.004Z,91.70
2018-04-17T07:41:26.560Z,88.80
2018-04-17T07:43:54.145Z,90.00
2018-04-17T07:46:21.705Z,86.00
2018-04-17T07:48:50.342Z,88.00
2018-04-17T07:51:17.897Z,84.70
2018-04-17T07:53:45.547Z,85.10
2018-04-17T07:56:13.218Z,81.80
2018-04-17T07:58:40.807Z,82.30
2018-04-17T08:01:09.178Z,76.40
2018-04-17T08:03:37.512Z,74.40
2018-04-17T08:06:05.193Z,73.90
2018-04-17T08:08:32.858Z,67.80
2018-04-17T08:11:00.453Z,64.30
2018-04-17T08:13:28.784Z,62.20
2018-04-17T08:15:56.393Z,62.10
2018-04-17T08:18:24.705Z,60.20
2018-04-17T08:20:52.284Z,60.20
2018-04-17T08:23:19.858Z,56.20
2018-04-17T08:25:47.420Z,56.70
2018-04-17T08:28:14.979Z,58.20
2018-04-17T08:30:42.568Z,57.20
2018-04-17T08:33:10.912Z,50.10
2018-04-17T08:35:38.501Z,49.50
2018-04-17T08:38:06.858Z,51.20
2018-04-17T08:40:34.427Z,51.10
2018-04-17T08:43:01.988Z,48.90
2018-04-17T08:45:29.603Z,50.40
2018-04-17T08:47:57.186Z,47.90
2018-04-17T08:50:24.860Z,49.10
2018-04-17T08:52:52.428Z,47.60
2018-04-17T08:55:20.024Z,49.00
2018-04-17T08:57:48.367Z,48.60
2018-04-17T09:00:16.028Z,48.50
2018-04-17T09:02:43.613Z,49.20
2018-04-17T09:05:13.278Z,49.00
2018-04-17T09:07:40.877Z,48.50
2018-04-17T09:10:08.517Z,49.50
2018-04-17T09:12:36.111Z,48.40
2018-04-17T09:15:04.431Z,48.70
2018-04-17T09:17:32.011Z,48.10
2018-04-17T09:19:59.575Z,48.80
2018-04-17T09:22:27.284Z,48.30
2018-04-17T09:24:55.624Z,46.10
2018-04-17T09:27:23.243Z,46.10
2018-04-17T09:29:50.816Z,47.10
2018-04-17T09:32:18.448Z,47.70
2018-04-17T09:34:46.779Z,49.60
2018-04-17T09:37:14.369Z,49.60
2018-04-17T09:39:41.946Z,47.10
2018-04-17T09:42:10.319Z,48.30
2018-04-17T09:44:37.877Z,48.20
2018-04-17T09:47:06.209Z,48.60
2018-04-17T09:49:33.791Z,48.40
2018-04-17T09:52:01.376Z,47.90
2018-04-17T09:54:28.945Z,48.00
2018-04-17T09:56:57.297Z,48.30
2018-04-17T09:59:24.960Z,48.30
2018-04-17T10:01:52.516Z,48.70
2018-04-17T10:04:20.086Z,49.10
2018-04-17T10:06:47.689Z,51.70
2018-04-17T10:09:16.026Z,49.70
2018-04-17T10:11:43.580Z,49.70
2018-04-17T10:14:11.183Z,50.50
2018-04-17T10:16:39.584Z,56.40
2018-04-17T10:19:07.176Z,56.40
2018-04-17T10:21:34.747Z,54.20
2018-04-17T10:24:02.324Z,51.30
2018-04-17T10:26:29.884Z,53.10
2018-04-17T10:28:57.472Z,55.30
2018-04-17T10:31:25.064Z,53.80
2018-04-17T10:33:52.624Z,51.30
2018-04-17T10:36:20.210Z,53.30
2018-04-17T10:38:47.772Z,53.80
2018-04-17T10:41:15.366Z,54.40
2018-04-17T10:43:43.704Z,53.50
2018-04-17T10:46:11.284Z,52.80
2018-04-17T10:48:38.879Z,53.20
2018-04-17T10:51:07.295Z,54.00
2018-04-17T10:53:34.880Z,53.90
2018-04-17T10:56:02.523Z,54.90
2018-04-17T10:58:30.182Z,53.60
2018-04-17T11:00:57.741Z,54.10
2018-04-17T11:03:25.367Z,53.10
2018-04-17T11:05:52.937Z,51.80
2018-04-17T11:08:20.569Z,54.90
2018-04-17T11:10:48.124Z,55.10
2018-04-17T11:13:15.735Z,53.30
2018-04-17T11:15:44.082Z,49.20
2018-04-17T11:18:12.446Z,50.50
2018-04-17T11:20:40.000Z,50.50
2018-04-17T11:23:07.586Z,50.80
2018-04-17T11:25:35.912Z,55.70
2018-04-17T11:28:03.516Z,55.70
2018-04-17T11:30:31.078Z,54.70
2018-04-17T11:32:58.672Z,56.20
2018-04-17T11:35:26.332Z,53.90
2018-04-17T11:37:54.011Z,53.70
2018-04-17T11:40:21.598Z,54.80
2018-04-17T11:42:49.171Z,51.70
2018-04-17T11:45:16.736Z,51.50
2018-04-17T11:47:44.318Z,51.70
2018-04-17T11:50:12.647Z,52.70
2018-04-17T11:52:40.224Z,52.60
2018-04-17T11:55:08.360Z,53.00
2018-04-17T11:57:35.994Z,55.50
2018-04-17T12:00:03.618Z,53.50
2018-04-17T12:02:31.195Z,54.80
2018-04-17T12:04:58.782Z,53.90
2018-04-17T12:07:27.128Z,55.40
2018-04-17T12:09:54.708Z,55.40
2018-04-17T12:12:23.058Z,57.00
2018-04-17T12:14:50.646Z,56.90
2018-04-17T12:17:19.000Z,56.50
2018-04-17T12:19:46.606Z,56.50
2018-04-17T12:22:14.986Z,58.20
2018-04-17T12:24:42.597Z,58.10
2018-04-17T12:27:10.201Z,57.10
2018-04-17T12:29:38.533Z,57.80
2018-04-17T12:32:06.106Z,57.70
2018-04-17T12:34:33.739Z,54.30
2018-04-17T12:37:01.348Z,53.60
2018-04-17T12:39:28.923Z,54.00
2018-04-17T12:41:57.267Z,54.10
2018-04-17T12:44:24.846Z,54.20
2018-04-17T12:46:52.429Z,56.40
2018-04-17T12:49:20.771Z,53.50
2018-04-17T12:51:48.336Z,53.60
2018-04-17T12:54:15.914Z,56.40
2018-04-17T12:56:44.262Z,57.80
2018-04-17T12:59:11.841Z,57.80
2018-04-17T13:01:39.422Z,56.00
2018-04-17T13:04:07.797Z,53.50
2018-04-17T13:06:36.154Z,54.40
2018-04-17T13:09:03.730Z,54.40
2018-04-17T13:11:31.311Z,56.20
2018-04-17T13:13:59.654Z,57.20
2018-04-17T13:16:27.228Z,57.20
2018-04-17T13:18:54.849Z,57.80
2018-04-17T13:21:23.191Z,56.90
2018-04-17T13:23:51.505Z,55.70
2018-04-17T13:26:19.115Z,55.50
2018-04-17T13:28:46.677Z,57.90
2018-04-17T13:31:14.288Z,56.40
2018-04-17T13:33:41.890Z,55.10
2018-04-17T13:36:09.538Z,57.40
2018-04-17T13:38:37.110Z,58.70
2018-04-17T13:41:04.695Z,56.10
2018-04-17T13:43:33.040Z,58.60
2018-04-17T13:46:00.898Z,58.50
2018-04-17T13:48:28.516Z,58.70
2018-04-17T13:50:57.004Z,61.30
2018-04-17T13:53:24.574Z,61.40
2018-04-17T13:55:52.161Z,55.50
2018-04-17T13:58:19.805Z,55.70
2018-04-17T14:00:47.443Z,56.00
2018-04-17T14:03:15.754Z,56.80
2018-04-17T14:05:43.307Z,57.40
2018-04-17T14:08:10.925Z,58.40
2018-04-17T14:10:38.475Z,58.00
2018-04-17T14:13:06.056Z,59.90
2018-04-17T14:15:34.384Z,57.20
2018-04-17T14:18:01.961Z,57.20
2018-04-17T14:20:29.544Z,58.40
2018-04-17T14:22:57.141Z,58.10
2018-04-17T14:25:24.712Z,59.10
2018-04-17T14:27:53.066Z,57.40
2018-04-17T14:30:21.394Z,57.50
2018-04-17T14:32:49.038Z,56.90
2018-04-17T14:35:16.601Z,55.60
2018-04-17T14:37:44.202Z,58.90
2018-04-17T14:40:11.778Z,61.80
2018-04-17T14:42:39.484Z,59.30
2018-04-17T14:45:07.828Z,58.70
2018-04-17T14:47:36.253Z,59.10
2018-04-17T14:50:03.829Z,59.20
2018-04-17T14:52:31.444Z,59.80
2018-04-17T14:54:59.934Z,62.00
2018-04-17T14:57:27.529Z,61.80
2018-04-17T14:59:55.139Z,59.50
2018-04-17T15:02:23.489Z,59.80
2018-04-17T15:04:51.072Z,59.70
2018-04-17T15:07:19.417Z,56.00
2018-04-17T15:09:47.002Z,56.00
2018-04-17T15:12:14.587Z,55.30
2018-04-17T15:14:42.940Z,56.60
2018-04-17T15:17:10.512Z,56.60
2018-04-17T15:19:38.875Z,57.80
2018-04-17T15:22:06.445Z,57.80
2018-04-17T15:24:34.021Z,57.90
2018-04-17T15:27:02.344Z,56.90
2018-04-17T15:29:29.932Z,56.80
2018-04-17T15:31:57.511Z,58.00
2018-04-17T15:34:25.861Z,59.40
2018-04-17T15:36:53.394Z,59.30
2018-04-17T15:39:21.749Z,57.50
2018-04-17T15:41:49.309Z,57.50
2018-04-17T15:44:16.891Z,56.40
2018-04-17T15:46:44.480Z,54.60
2018-04-17T15:49:12.068Z,57.10
2018-04-17T15:51:39.648Z,54.80
2018-04-17T15:54:07.974Z,55.50
2018-04-17T15:56:35.601Z,55.40
2018-04-17T15:59:03.170Z,55.60
2018-04-17T16:07:37.582Z,57.40
2018-04-17T16:10:06.061Z,57.30
2018-04-17T16:12:33.647Z,57.60
2018-04-17T16:15:02.025Z,58.80
2018-04-17T16:17:30.368Z,57.30
2018-04-17T16:19:57.933Z,57.30
2018-04-17T16:22:25.573Z,57.50
2018-04-17T16:24:53.160Z,56.80
2018-04-17T16:27:20.758Z,56.70
2018-04-17T16:29:49.121Z,59.10
2018-04-17T16:32:16.696Z,58.90
2018-04-17T16:34:45.083Z,57.20
2018-04-17T16:37:13.429Z,59.10
2018-04-17T16:39:41.019Z,58.90
2018-04-17T16:42:09.351Z,61.60
2018-04-17T16:44:36.955Z,61.50
2018-04-17T16:47:05.316Z,61.40
2018-04-17T16:49:32.889Z,61.30
2018-04-17T16:52:01.229Z,63.70
2018-04-17T16:54:28.811Z,63.90
2018-04-17T16:56:56.369Z,65.60
2018-04-17T16:59:23.967Z,64.40
2018-04-17T17:01:52.344Z,65.00
2018-04-17T17:04:20.056Z,64.90
2018-04-17T17:06:47.625Z,66.00
2018-04-17T17:09:15.247Z,64.80
2018-04-17T17:11:42.828Z,64.00
2018-04-17T17:14:10.411Z,64.90
2018-04-17T17:16:37.982Z,65.90
2018-04-17T17:19:05.607Z,65.80
2018-04-17T17:21:33.180Z,66.50
2018-04-17T17:24:00.757Z,68.60
2018-04-17T17:26:28.366Z,67.80
2018-04-17T17:28:56.729Z,69.00
2018-04-17T17:31:24.320Z,68.10
2018-04-17T17:33:51.906Z,70.10
2018-04-17T17:36:19.517Z,70.50
2018-04-17T17:38:47.869Z,68.90
2018-04-17T17:41:15.498Z,68.80
2018-04-17T17:43:43.099Z,69.40
2018-04-17T17:46:10.689Z,71.60
2018-04-17T17:48:39.065Z,76.00
2018-04-17T17:51:07.482Z,76.20
2018-04-17T17:53:35.054Z,76.10
2018-04-17T17:56:02.649Z,78.10
2018-04-17T17:58:30.214Z,79.30
2018-04-17T18:00:57.811Z,81.20
2018-04-17T18:03:25.408Z,82.30
2018-04-17T18:05:53.008Z,82.20
2018-04-17T18:08:21.369Z,84.50
2018-04-17T18:10:48.987Z,85.30
2018-04-17T18:13:16.559Z,87.40
2018-04-17T18:15:44.127Z,88.10
2018-04-17T18:18:11.857Z,90.20
2018-04-17T18:20:39.429Z,90.40
2018-04-17T18:23:07.019Z,90.50
2018-04-17T18:25:34.696Z,91.50
2018-04-17T18:28:02.323Z,92.20
2018-04-17T18:30:29.909Z,96.50
2018-04-17T18:32:57.513Z,99.30
2018-04-17T18:35:25.935Z,99.90
2018-04-17T18:37:53.955Z,99.90
2018-04-17T18:40:22.293Z,99.90
2018-04-17T18:42:49.899Z,99.90
2018-04-17T18:45:18.228Z,99.90
2018-04-17T18:47:45.881Z,99.90
2018-04-17T18:50:13.491Z,99.90
2018-04-17T18:52:41.107Z,99.90
2018-04-17T18:55:08.641Z,99.90
2018-04-17T18:57:36.247Z,99.90
2018-04-17T19:00:03.839Z,99.90
2018-04-17T19:02:31.421Z,99.90
2018-04-17T19:04:59.041Z,99.90
2018-04-17T19:07:26.652Z,99.90
2018-04-17T19:09:54.256Z,99.90
2018-04-17T19:12:21.815Z,99.90
2018-04-17T19:14:49.397Z,99.90
2018-04-17T19:17:16.967Z,99.90
2018-04-17T19:19:44.566Z,99.90
2018-04-17T19:22:12.137Z,99.90
2018-04-17T19:24:39.826Z,99.90
2018-04-17T19:27:07.432Z,99.90
2018-04-17T19:29:35.765Z,99.90
2018-04-17T19:32:03.407Z,99.90
2018-04-17T19:34:31.034Z,99.90
2018-04-17T19:36:59.407Z,99.90
2018-04-17T19:39:27.755Z,99.90
2018-04-17T19:41:55.376Z,99.90
2018-04-17T19:44:22.954Z,99.90
2018-04-17T19:46:50.553Z,99.90
2018-04-17T19:49:18.106Z,99.90
2018-04-17T19:51:45.705Z,99.90
2018-04-17T19:54:14.115Z,99.90
2018-04-17T19:56:41.729Z,99.90
2018-04-17T19:59:09.343Z,99.90
2018-04-17T20:01:36.945Z,99.90
2018-04-17T20:04:04.552Z,99.90
2018-04-17T20:06:32.137Z,99.90
2018-04-17T20:08:59.731Z,99.90
2018-04-17T20:11:27.320Z,99.90
2018-04-17T20:13:54.900Z,99.90
2018-04-17T20:16:23.256Z,99.90
2018-04-17T20:18:51.618Z,99.90
2018-04-17T20:21:19.205Z,99.90
2018-04-17T20:23:46.836Z,99.90
2018-04-17T20:26:14.416Z,99.90
2018-04-17T20:28:42.778Z,99.90
2018-04-17T20:31:10.395Z,99.90
2018-04-17T20:33:38.111Z,99.90
2018-04-17T20:36:06.476Z,99.90
2018-04-17T20:38:34.111Z,99.90
2018-04-17T20:41:01.754Z,99.90
2018-04-17T20:43:29.398Z,99.90
2018-04-17T20:45:57.023Z,99.90
2018-04-17T20:48:24.609Z,99.90
2018-04-17T20:50:52.973Z,99.90
2018-04-17T20:53:21.364Z,99.90
2018-04-17T20:55:49.726Z,99.90
2018-04-17T20:58:17.312Z,99.90
2018-04-17T21:00:45.760Z,99.90
2018-04-17T21:03:13.354Z,99.90
2018-04-17T21:05:41.727Z,99.90
2018-04-17T21:08:10.066Z,99.90
2018-04-17T21:10:37.828Z,99.90
2018-04-17T21:13:05.401Z,99.90
2018-04-17T21:15:32.994Z,99.90
2018-04-17T21:18:01.419Z,99.90
2018-04-17T21:20:29.017Z,99.90
2018-04-17T21:22:56.598Z,99.90
2018-04-17T21:25:24.930Z,99.90
2018-04-17T21:27:52.528Z,99.90
2018-04-17T21:30:20.889Z,99.90
2018-04-17T21:32:48.469Z,99.90
2018-04-17T21:35:16.793Z,99.90
2018-04-17T21:37:44.402Z,99.90
2018-04-17T21:40:11.972Z,99.90
2018-04-17T21:42:40.324Z,99.90
2018-04-17T21:45:07.905Z,99.90
2018-04-17T21:47:35.504Z,99.90
2018-04-17T21:50:03.116Z,99.90
2018-04-17T21:52:30.732Z,99.90
2018-04-17T21:54:58.303Z,99.90
2018-04-17T21:57:26.721Z,99.90
2018-04-17T21:59:54.293Z,99.90
2018-04-17T22:02:21.875Z,99.90
2018-04-17T22:04:50.200Z,99.90
2018-04-17T22:07:17.797Z,99.90
2018-04-17T22:09:46.134Z,99.90
2018-04-17T22:12:13.747Z,99.90
2018-04-17T22:14:42.100Z,99.90
2018-04-17T22:17:09.723Z,99.90
2018-04-17T22:19:37.294Z,99.90
2018-04-17T22:22:04.864Z,99.90
2018-04-17T22:24:32.432Z,99.90
2018-04-17T22:27:00.013Z,99.90
2018-04-17T22:29:27.636Z,99.90
2018-04-17T22:31:55.204Z,99.90
2018-04-17T22:34:22.784Z,99.90
2018-04-17T22:36:50.419Z,99.90
2018-04-17T22:39:18.028Z,99.90
2018-04-17T22:41:45.599Z,99.90
2018-04-17T22:44:13.976Z,99.90
2018-04-17T22:46:42.355Z,99.90
2018-04-17T22:49:11.655Z,99.90
2018-04-17T22:51:40.087Z,99.90
2018-04-17T22:54:07.987Z,99.90
2018-04-17T22:56:35.627Z,99.90
2018-04-17T22:59:03.246Z,99.90
2018-04-17T23:01:31.572Z,99.90
2018-04-17T23:03:59.193Z,99.90
2018-04-17T23:06:27.596Z,99.90
2018-04-17T23:08:55.194Z,99.90
2018-04-17T23:11:22.767Z,99.90
2018-04-17T23:13:50.456Z,99.90
2018-04-17T23:16:18.035Z,99.90
2018-04-17T23:18:45.687Z,99.90
2018-04-17T23:21:13.341Z,99.90
2018-04-17T23:23:40.959Z,99.90
2018-04-17T23:26:08.582Z,99.90
2018-04-17T23:28:36.132Z,99.90
2018-04-17T23:31:03.702Z,99.90
2018-04-17T23:33:31.272Z,99.90
2018-04-17T23:35:58.855Z,99.90
2018-04-17T23:38:26.435Z,99.90
2018-04-17T23:40:54.013Z,99.90
2018-04-17T23:43:22.341Z,99.90
2018-04-17T23:45:49.927Z,99.90
2018-04-17T23:48:17.516Z,99.90
2018-04-17T23:50:45.858Z,99.90
2018-04-17T23:53:13.706Z,99.90
2018-04-17T23:55:41.260Z,99.90
2018-04-17T23:58:09.607Z,99.90
